Aviation Digital Data Service (ADDS)

Output produced by METARs form (0630 UTC 02 August 2014)
found at http://aviationweather.gov/adds/metars/
 
KSFO 020539Z 0206/0312 29017KT P6SM FEW003 
     FM020900 29008KT P6SM SCT012 
     FM021200 28008KT P6SM BKN008 
     FM021700 29010KT P6SM SCT010 
     FM022000 29015KT P6SM SKC 
     FM022300 30017G23KT P6SM SKC 
     FM030400 29014KT P6SM SCT010 
     FM030600 26008KT P6SM BKN010